Capitol Logistics 371


KMIA
Miami International Airport
Miami, Florida, US
KCLT
Charlotte/Douglas International Airport
Charlotte, North Carolina, US

Activity Log

Date Flight Route Aircraft Duration
10/03/2019 CPX371 HEDLY2 HEDLY STYMY ZERBO Q87 VIYAP CHECR STOCR3 B763 2h 00m
07/03/2019 CPX371 KMIA HEDLY2 HEDLY STYMY Q77 WIGVO PONZE BANKR2 KCLT B763 1h 46m

Route Details

Aircraft Information
Primary: Boeing 767-300BDSF
Backup: Not Available
Route Data
Distance: 567nm
Sched. Duration: 1h 55m
Avg. Duration: 1h 73m (+18m)
Times Flown: 2
Recm'd Route: HEDLY2 HEDLY STYMY ZERBO Q87 VIYAP CHECR STOCR3
Planned Altitude: 35,000ft
Origin Wx: KMIA 181553Z 10013KT 10SM BKN025 BKN040 28/19 A3018 RMK AO2 SLP220 T02780194
Dest. Wx: KCLT 181552Z 16005KT 10SM OVC014 13/08 A3021 RMK AO2 SLP227 T01280078 $
Notes:

Financial History
Total Freight: 160,117lbs
Average Load: 80,059lbs/flt
Fuel Used: 39,150lbs
Avg. Fuel Used: 19,575lbs/flt
Fuel Expense: $48,155
Avg. Fuel Expense: $24,077
Avg. Fuel Cost: $1.23/lbs
Total Gross Income: $206,551
Pilot Pay: $378
Total Expenses: $22,412
Total Revenue: $135,382
Average Revenue: $103,275.47